Time;durP1;ratioP1;P1;durP2;ratioP2;P2;SDS_P1;SDS_P2;PMS_P1;PMS_P2;Temp;Humidity;BMP_temperature;BMP_pressure;BME280_temperature;BME280_humidity;BME280_pressure;Samples;Min_cycle;Max_cycle;Signal;HPM_P1;HPM_P2
2022/01/04 00:01:07;;;;;;;1.13;0.57;;;;;;;6.93;84.64;98836.92;1662053;83;21015;-61
2022/01/04 00:03:34;;;;;;;1.77;0.78;;;;;;;6.79;85.85;98834.25;1665400;85;21019;-62
2022/01/04 00:06:00;;;;;;;1.93;0.87;;;;;;;6.74;86.29;98839.36;1654807;85;21039;-62
2022/01/04 00:08:27;;;;;;;4.53;2.15;;;;;;;6.71;86.51;98841.58;1654465;85;21496;-60
2022/01/04 00:11:05;;;;;;;2.07;1.00;;;;;;;6.74;86.85;98851.75;1655118;85;21528;-60
2022/01/04 00:13:23;;;;;;;1.70;1.53;;;;;;;6.77;86.99;98852.69;1665778;84;21391;-62
2022/01/04 00:15:56;;;;;;;1.73;1.00;;;;;;;6.78;87.06;98856.95;1664156;84;21046;-61
2022/01/04 00:18:25;;;;;;;1.57;1.00;;;;;;;6.79;87.25;98855.44;1682630;84;21074;-61
2022/01/04 00:20:53;;;;;;;1.87;1.30;;;;;;;6.85;87.38;98851.17;1679228;84;21054;-61
2022/01/04 00:23:20;;;;;;;1.50;1.40;;;;;;;6.89;87.46;98856.37;1666270;84;21068;-60
2022/01/04 00:25:48;;;;;;;3.13;2.63;;;;;;;6.88;87.64;98857.92;1668341;84;21574;-60
2022/01/04 00:28:16;;;;;;;2.20;2.00;;;;;;;6.88;87.66;98860.05;1651231;84;21062;-60
2022/01/04 00:30:43;;;;;;;3.80;2.67;;;;;;;6.94;87.45;98859.76;1676271;84;21054;-61
2022/01/04 00:33:12;;;;;;;4.07;2.40;;;;;;;7.00;86.98;98865.56;1681604;81;20994;-61
2022/01/04 00:35:40;;;;;;;2.70;2.43;;;;;;;7.03;86.54;98865.17;1684107;84;21007;-61
2022/01/04 00:38:07;;;;;;;2.37;2.17;;;;;;;7.05;86.07;98864.98;1638351;86;21061;-61
2022/01/04 00:40:35;;;;;;;2.60;2.23;;;;;;;7.03;86.05;98870.48;1652335;85;21016;-60
2022/01/04 00:43:03;;;;;;;2.93;2.27;;;;;;;6.99;86.06;98874.55;1629733;86;21639;-61
2022/01/04 00:45:31;;;;;;;3.57;2.57;;;;;;;6.95;86.00;98874.13;1620006;85;21036;-62
2022/01/04 00:50:30;;;;;;;2.73;1.47;;;;;;;7.03;85.51;98883.72;1611288;87;21037;-61
2022/01/04 00:52:58;;;;;;;3.43;2.10;;;;;;;7.07;85.32;98877.00;1616024;87;21057;-60
2022/01/04 00:55:27;;;;;;;2.83;1.63;;;;;;;7.09;84.84;98882.11;1625283;86;21030;-61
2022/01/04 00:57:55;;;;;;;2.67;1.73;;;;;;;7.09;84.76;98878.94;1669490;83;21109;-61
2022/01/04 01:00:23;;;;;;;2.93;2.30;;;;;;;7.05;84.48;98881.69;1682507;83;21107;-60
2022/01/04 01:02:49;;;;;;;2.60;1.93;;;;;;;6.97;84.50;98883.21;1625084;87;21459;-61
2022/01/04 01:05:19;;;;;;;2.07;1.63;;;;;;;6.93;84.65;98877.98;1606891;88;21151;-61
2022/01/04 01:07:46;;;;;;;2.57;1.83;;;;;;;6.88;84.15;98881.24;1641811;87;21497;-61
2022/01/04 01:12:49;;;;;;;4.10;1.60;;;;;;;6.85;84.20;98884.80;1652275;84;21015;-61
2022/01/04 01:15:16;;;;;;;3.87;1.93;;;;;;;6.79;84.14;98882.44;1670342;84;21169;-59
2022/01/04 01:17:43;;;;;;;2.47;1.33;;;;;;;6.74;84.11;98884.86;1678200;84;21042;-63
2022/01/04 01:20:11;;;;;;;2.87;1.70;;;;;;;6.69;84.40;98882.82;1669162;84;20997;-60
2022/01/04 01:22:38;;;;;;;3.30;2.13;;;;;;;6.71;84.58;98883.43;1670813;84;21546;-61
2022/01/04 01:25:06;;;;;;;2.05;1.50;;;;;;;6.70;84.58;98883.63;1681934;84;21779;-60
2022/01/04 01:27:33;;;;;;;2.10;1.17;;;;;;;6.67;84.51;98886.17;1667430;85;21007;-61
2022/01/04 01:29:59;;;;;;;;;;;;;;;6.60;84.41;98872.09;1677581;84;21145;-62
2022/01/04 01:32:25;;;;;;;1.60;1.07;;;;;;;6.74;84.42;98883.53;1680702;84;20398;-60
2022/01/04 01:34:51;;;;;;;1.92;1.25;;;;;;;6.77;84.40;98879.98;1670125;84;21544;-63
2022/01/04 01:37:18;;;;;;;1.70;1.20;;;;;;;6.82;83.97;98884.18;1655847;85;21634;-61
2022/01/04 01:39:47;;;;;;;4.13;1.53;;;;;;;6.85;83.87;98888.25;1675771;84;21574;-61
2022/01/04 01:42:13;;;;;;;1.10;0.70;;;;;;;6.83;83.78;98881.83;1662618;84;21090;-61
2022/01/04 01:44:42;;;;;;;1.97;1.00;;;;;;;6.82;83.80;98888.16;1652206;85;21042;-61
2022/01/04 01:47:09;;;;;;;1.50;1.40;;;;;;;6.86;83.58;98884.60;1678864;84;21531;-62
2022/01/04 01:49:36;;;;;;;1.95;1.20;;;;;;;6.93;83.18;98892.55;1688835;84;21016;-60
2022/01/04 01:52:05;;;;;;;5.07;1.20;;;;;;;6.96;82.60;98890.83;1692768;84;21011;-61
2022/01/04 01:54:32;;;;;;;5.40;1.33;;;;;;;6.95;82.62;98899.30;1676016;85;21084;-59
2022/01/04 01:56:58;;;;;;;;;;;;;;;6.95;82.83;98895.81;1690746;84;21021;-61
2022/01/04 01:59:25;;;;;;;2.40;1.87;;;;;;;6.95;82.92;98896.65;1686435;84;20150;-61
2022/01/04 02:01:52;;;;;;;2.77;2.20;;;;;;;6.85;82.62;98900.17;1688400;84;21228;-61
2022/01/04 02:04:18;;;;;;;1.70;1.60;;;;;;;6.86;82.76;98898.36;1693780;84;20969;-62
2022/01/04 02:06:45;;;;;;;1.50;1.35;;;;;;;6.89;82.35;98900.59;1691974;84;21514;-61
2022/01/04 02:09:12;;;;;;;4.10;1.87;;;;;;;6.91;82.37;98901.20;1684260;84;21127;-61
2022/01/04 02:11:40;;;;;;;2.93;2.73;;;;;;;6.95;82.32;98900.62;1651711;86;21515;-61
2022/01/04 02:14:07;;;;;;;2.67;2.40;;;;;;;6.99;82.35;98907.15;1681908;83;21059;-61
2022/01/04 02:16:33;;;;;;;2.55;2.22;;;;;;;6.99;82.27;98901.85;1688982;83;21077;-62
2022/01/04 02:19:09;;;;;;;2.22;2.10;;;;;;;6.99;82.12;98909.80;1695259;83;21069;-61
2022/01/04 02:21:36;;;;;;;2.67;2.47;;;;;;;6.96;81.89;98906.21;1695023;84;21169;-62
2022/01/04 02:24:04;;;;;;;3.80;1.63;;;;;;;6.94;81.61;98912.73;1693159;83;21021;-60
2022/01/04 02:26:31;;;;;;;2.00;1.47;;;;;;;6.95;81.58;98917.84;1686448;84;21060;-61
2022/01/04 02:28:59;;;;;;;2.20;1.30;;;;;;;6.98;81.60;98917.94;1695069;83;21032;-66
2022/01/04 02:31:27;;;;;;;1.37;1.27;;;;;;;6.98;81.46;98915.29;1695180;84;21003;-61
2022/01/04 02:33:53;;;;;;;1.63;1.10;;;;;;;6.93;81.43;98915.06;1694538;81;21039;-61
2022/01/04 02:36:19;;;;;;;1.57;1.45;;;;;;;6.88;81.59;98911.70;1690167;84;21574;-59
2022/01/04 02:38:46;;;;;;;1.50;1.40;;;;;;;6.87;81.54;98914.55;1680528;84;21520;-59
2022/01/04 02:41:12;;;;;;;1.75;1.65;;;;;;;6.92;81.39;98916.09;1686824;84;21638;-59
2022/01/04 02:43:38;;;;;;;2.20;1.50;;;;;;;6.96;81.40;98919.97;1682877;84;21048;-60
2022/01/04 02:46:04;;;;;;;1.75;1.15;;;;;;;6.99;81.20;98918.27;1688975;84;21535;-58
2022/01/04 02:48:32;;;;;;;1.73;1.03;;;;;;;6.92;80.84;98915.58;1685771;84;20999;-59
2022/01/04 02:50:58;;;;;;;2.47;1.20;;;;;;;6.87;80.97;98914.03;1668575;84;21018;-60
2022/01/04 02:53:24;;;;;;;1.35;0.95;;;;;;;6.85;81.02;98917.39;1688777;84;21018;-59
2022/01/04 02:55:50;;;;;;;1.40;0.90;;;;;;;6.89;80.88;98915.16;1681611;84;21050;-59
2022/01/04 02:58:16;;;;;;;1.07;0.55;;;;;;;6.92;80.43;98914.77;1681944;84;21055;-60
2022/01/04 03:00:44;;;;;;;1.47;1.15;;;;;;;6.89;80.47;98910.67;1681945;84;21050;-59
2022/01/04 03:03:10;;;;;;;1.17;0.60;;;;;;;6.85;80.75;98910.77;1666341;84;21034;-61
2022/01/04 03:05:36;;;;;;;1.02;0.50;;;;;;;6.82;80.60;98917.28;1664681;84;21059;-60
2022/01/04 03:08:03;;;;;;;4.05;1.55;;;;;;;6.81;80.70;98925.42;1669854;84;21015;-59
2022/01/04 03:10:30;;;;;;;1.87;0.50;;;;;;;6.87;80.34;98922.48;1680119;84;21059;-66
2022/01/04 03:12:57;;;;;;;1.27;0.88;;;;;;;6.94;80.08;98920.17;1703057;83;21552;-58
2022/01/04 03:15:25;;;;;;;0.97;0.83;;;;;;;7.02;79.66;98929.77;1703059;83;21062;-58
2022/01/04 03:17:51;;;;;;;2.87;1.10;;;;;;;7.03;79.44;98932.73;1702109;83;21189;-59
2022/01/04 03:20:19;;;;;;;3.17;0.60;;;;;;;6.98;79.19;98927.21;1687151;83;21027;-59
2022/01/04 03:22:45;;;;;;;1.37;0.72;;;;;;;6.94;79.20;98929.95;1697140;83;21037;-58
2022/01/04 03:25:12;;;;;;;1.25;0.62;;;;;;;6.91;79.08;98931.18;1685557;83;21038;-58
2022/01/04 03:27:38;;;;;;;;;;;;;;;6.92;78.96;98928.02;1687938;83;21026;-59
2022/01/04 03:30:07;;;;;;;3.40;0.60;;;;;;;6.98;78.62;98931.19;1687881;83;20138;-59
2022/01/04 03:32:35;;;;;;;1.63;0.37;;;;;;;6.99;78.37;98932.31;1679716;83;21078;-59
2022/01/04 03:35:02;;;;;;;1.47;0.65;;;;;;;6.99;78.14;98930.99;1694205;83;21030;-59
2022/01/04 03:37:28;;;;;;;2.33;0.70;;;;;;;6.95;77.97;98940.36;1656870;85;21030;-59
2022/01/04 03:39:54;;;;;;;1.45;0.68;;;;;;;6.93;77.92;98934.93;1643083;86;21101;-59
2022/01/04 03:42:20;;;;;;;1.98;0.60;;;;;;;6.88;77.69;98944.00;1635104;86;21107;-59
2022/01/04 03:44:46;;;;;;;1.50;0.50;;;;;;;6.82;77.92;98946.42;1696178;84;20999;-59
2022/01/04 03:47:12;;;;;;;1.52;0.60;;;;;;;6.81;77.99;98951.39;1673717;85;21078;-60
2022/01/04 03:49:38;;;;;;;1.72;0.85;;;;;;;6.85;77.72;98958.95;1664307;85;21044;-58
2022/01/04 03:52:05;;;;;;;1.70;1.02;;;;;;;6.86;77.84;98959.28;1674187;85;21072;-59
2022/01/04 03:54:31;;;;;;;1.93;1.17;;;;;;;6.86;77.97;98965.91;1649217;85;21089;-58
2022/01/04 03:56:58;;;;;;;2.10;1.37;;;;;;;6.85;78.17;98964.25;1668044;85;21621;-58
2022/01/04 03:59:24;;;;;;;2.02;1.60;;;;;;;6.83;78.19;98971.06;1665269;85;21003;-61
2022/01/04 04:01:50;;;;;;;;;;;;;;;6.81;78.35;98969.94;1674211;85;21054;-59
2022/01/04 04:04:17;;;;;;;3.30;2.13;;;;;;;6.78;78.34;98969.50;1682128;84;20146;-58
2022/01/04 04:06:46;;;;;;;5.07;2.67;;;;;;;6.73;78.58;98978.06;1674537;84;21158;-59
2022/01/04 04:09:12;;;;;;;4.27;1.90;;;;;;;6.81;78.57;98975.75;1649245;86;21037;-62
2022/01/04 04:11:39;;;;;;;5.17;1.98;;;;;;;6.62;78.36;98942.35;1644317;86;21062;-59
2022/01/04 04:14:05;;;;;;;2.27;1.67;;;;;;;6.91;78.37;98983.31;1655752;85;21014;-60
2022/01/04 04:16:33;;;;;;;3.47;2.30;;;;;;;6.88;78.65;98986.38;1640866;86;21014;-59
2022/01/04 04:18:59;;;;;;;3.03;1.97;;;;;;;6.88;78.82;98985.87;1679022;85;21521;-59
2022/01/04 04:21:27;;;;;;;3.00;1.63;;;;;;;6.90;78.85;98985.67;1681435;85;21022;-59
2022/01/04 04:23:53;;;;;;;2.83;1.22;;;;;;;6.92;78.87;98990.27;1654000;86;21105;-60
2022/01/04 04:26:19;;;;;;;2.00;1.10;;;;;;;6.96;78.66;98990.98;1648768;85;21441;-60
2022/01/04 04:28:46;;;;;;;1.32;0.78;;;;;;;6.95;78.77;98999.12;1629666;86;21598;-59
2022/01/04 04:31:13;;;;;;;;;;;;;;;6.91;79.14;99008.00;1641793;86;21120;-58
2022/01/04 04:33:39;;;;;;;3.03;1.50;;;;;;;6.85;79.76;98998.17;1641352;86;20228;-61
2022/01/04 04:36:08;;;;;;;2.53;1.40;;;;;;;6.74;80.25;99004.02;1636347;87;21046;-62
2022/01/04 04:38:35;;;;;;;1.73;1.40;;;;;;;6.69;80.79;99007.27;1638452;87;21089;-59
2022/01/04 04:41:01;;;;;;;2.87;1.37;;;;;;;6.70;81.08;99004.11;1638235;87;21029;-58
2022/01/04 04:43:27;;;;;;;1.50;1.37;;;;;;;6.72;81.26;99010.83;1645834;87;20951;-60
2022/01/04 04:45:53;;;;;;;2.65;1.12;;;;;;;6.72;81.42;99008.19;1639553;87;21066;-62
2022/01/04 04:48:19;;;;;;;2.55;1.22;;;;;;;6.74;81.64;99010.16;1625471;87;21879;-66
2022/01/04 04:50:45;;;;;;;1.40;1.20;;;;;;;6.71;81.97;99017.67;1637617;87;21614;-60
2022/01/04 04:53:12;;;;;;;3.20;1.20;;;;;;;6.61;82.54;99019.33;1643477;85;20978;-58
2022/01/04 04:55:38;;;;;;;3.02;1.22;;;;;;;6.54;82.89;99023.78;1644959;85;21105;-62
2022/01/04 04:58:04;;;;;;;2.12;1.20;;;;;;;6.53;83.25;99025.59;1644407;87;21030;-60
2022/01/04 05:00:30;;;;;;;2.27;1.25;;;;;;;6.56;83.22;99023.89;1643038;87;21014;-59
2022/01/04 05:02:56;;;;;;;3.95;1.15;;;;;;;6.58;83.33;99029.81;1639632;87;21046;-60
2022/01/04 05:05:22;;;;;;;2.77;1.60;;;;;;;6.52;83.45;99031.92;1632781;87;21048;-60
2022/01/04 05:07:49;;;;;;;1.92;1.32;;;;;;;6.45;83.65;99023.63;1647070;87;21531;-61
2022/01/04 05:10:15;;;;;;;3.10;2.17;;;;;;;6.36;84.25;99035.66;1643748;87;21022;-62
2022/01/04 05:12:42;;;;;;;5.63;2.53;;;;;;;6.29;84.70;99038.80;1643564;85;21555;-61
2022/01/04 05:15:09;;;;;;;3.83;1.90;;;;;;;6.27;85.02;99030.20;1633552;87;20972;-60
2022/01/04 05:17:38;;;;;;;2.90;1.60;;;;;;;6.28;84.84;99038.47;1643141;87;21553;-60
2022/01/04 05:20:05;;;;;;;3.08;2.12;;;;;;;6.27;84.92;99034.17;1642192;87;21629;-59
2022/01/04 05:22:35;;;;;;;2.73;2.40;;;;;;;6.30;85.10;99036.44;1635048;86;21052;-59
2022/01/04 05:25:03;;;;;;;5.93;2.50;;;;;;;6.35;85.33;99036.69;1648054;87;21034;-58
2022/01/04 05:27:31;;;;;;;4.43;3.37;;;;;;;6.42;85.47;99040.69;1648089;87;21122;-61
2022/01/04 05:29:57;;;;;;;4.42;3.35;;;;;;;6.42;85.53;99042.86;1632640;87;21108;-60
2022/01/04 05:32:24;;;;;;;4.83;3.43;;;;;;;6.43;85.42;99044.47;1631593;87;21034;-60
2022/01/04 05:34:50;;;;;;;5.08;3.58;;;;;;;6.40;85.05;99045.36;1642937;85;21542;-61
2022/01/04 05:37:17;;;;;;;2.90;2.72;;;;;;;6.40;84.83;99052.82;1648886;87;21530;-59
2022/01/04 05:39:43;;;;;;;;;;;;;;;6.37;85.01;99054.52;1650843;87;21069;-62
2022/01/04 05:42:09;;;;;;;3.53;3.20;;;;;;;6.30;85.22;99050.19;1636515;87;20413;-61
2022/01/04 05:44:36;;;;;;;;;;;;;;;6.24;85.72;99055.23;1638868;86;21042;-65
2022/01/04 05:47:05;;;;;;;4.10;3.45;;;;;;;6.25;85.89;99065.30;1631813;87;20116;-65
2022/01/04 05:49:33;;;;;;;6.00;3.50;;;;;;;5.84;86.27;99009.09;1634471;87;21144;-63
2022/01/04 05:52:00;;;;;;;4.23;3.63;;;;;;;6.18;86.74;99067.09;1630653;87;21106;-60
2022/01/04 05:54:26;;;;;;;3.90;3.50;;;;;;;6.13;86.87;99058.91;1623015;87;21050;-59
2022/01/04 05:56:53;;;;;;;4.37;3.97;;;;;;;6.22;86.89;99077.09;1632240;87;21045;-60
2022/01/04 05:59:19;;;;;;;3.95;3.55;;;;;;;6.26;86.63;99070.92;1633366;87;21547;-61
2022/01/04 06:01:45;;;;;;;5.72;3.75;;;;;;;6.29;86.71;99073.20;1639091;85;21111;-60
2022/01/04 06:04:11;;;;;;;6.28;3.87;;;;;;;6.35;86.72;99073.74;1616319;88;21053;-61
2022/01/04 06:06:41;;;;;;;6.47;3.73;;;;;;;6.39;86.35;99072.86;1610743;88;21126;-61
2022/01/04 06:09:17;;;;;;;4.37;3.90;;;;;;;6.40;86.31;99075.32;1619768;88;21084;-62
2022/01/04 06:16:17;;;;;;;3.23;2.93;;;;;;;6.54;85.54;99082.84;1777307;78;21988;-61
2022/01/04 06:18:45;;;;;;;3.23;3.00;;;;;;;6.53;85.48;99090.97;1742182;80;21041;-62
2022/01/04 06:21:12;;;;;;;2.90;2.55;;;;;;;6.53;85.31;99085.16;1756552;80;20971;-59
2022/01/04 06:23:38;;;;;;;8.38;4.50;;;;;;;6.56;84.71;99090.59;1696355;79;21009;-61
2022/01/04 06:26:05;;;;;;;;;;;;;;;6.59;84.46;99093.68;1671994;84;21002;-59
2022/01/04 06:28:32;;;;;;;3.57;3.27;;;;;;;6.61;84.19;99097.44;1672249;84;20636;-63
2022/01/04 06:30:59;;;;;;;2.40;2.20;;;;;;;6.60;84.18;99101.11;1674347;84;21462;-62
2022/01/04 06:33:25;;;;;;;4.42;3.70;;;;;;;6.63;84.12;99099.41;1671514;84;21037;-65
2022/01/04 06:35:51;;;;;;;4.92;3.90;;;;;;;6.70;83.98;99104.22;1687372;83;21022;-65
2022/01/04 06:38:17;;;;;;;5.87;4.08;;;;;;;6.73;83.69;99104.36;1682370;83;21045;-62
2022/01/04 06:40:44;;;;;;;5.80;3.70;;;;;;;6.68;83.40;99117.35;1691555;83;20973;-61
2022/01/04 06:43:10;;;;;;;4.00;3.60;;;;;;;6.58;83.49;99114.53;1666308;83;21182;-60
2022/01/04 06:45:37;;;;;;;3.90;3.52;;;;;;;6.59;83.53;99108.72;1691778;82;21083;-63
2022/01/04 06:48:05;;;;;;;4.03;3.70;;;;;;;6.63;83.60;99110.00;1694265;83;21072;-62
2022/01/04 06:50:32;;;;;;;4.97;4.27;;;;;;;6.69;83.55;99113.70;1703803;83;20969;-61
2022/01/04 06:52:58;;;;;;;;;;;;;;;6.77;83.50;99116.20;1704319;83;20995;-64
2022/01/04 06:55:24;;;;;;;4.97;4.47;;;;;;;6.78;82.75;99122.63;1697146;82;20120;-61
2022/01/04 06:57:51;;;;;;;5.10;4.13;;;;;;;6.69;82.95;99117.17;1684386;84;21017;-63
2022/01/04 07:00:18;;;;;;;7.22;5.75;;;;;;;6.64;83.13;99131.48;1650718;85;21053;-62
2022/01/04 07:02:44;;;;;;;10.75;5.83;;;;;;;6.68;82.88;99126.11;1632523;86;21089;-61
2022/01/04 07:05:11;;;;;;;5.40;4.90;;;;;;;6.72;82.56;99123.38;1629189;86;21398;-62
2022/01/04 07:07:37;;;;;;;5.10;4.60;;;;;;;6.75;82.47;99124.33;1630355;86;21120;-61
2022/01/04 07:10:05;;;;;;;4.08;3.77;;;;;;;6.81;82.49;99121.41;1619289;87;21092;-61
2022/01/04 07:12:33;;;;;;;4.07;3.23;;;;;;;6.87;82.16;99123.28;1638051;85;21037;-62
2022/01/04 07:14:59;;;;;;;4.25;3.85;;;;;;;6.91;81.89;99125.03;1669423;84;21026;-63
2022/01/04 07:17:25;;;;;;;4.65;3.52;;;;;;;6.87;81.75;99125.13;1663002;84;21062;-62
2022/01/04 07:19:52;;;;;;;4.25;3.15;;;;;;;6.82;81.62;99127.84;1668000;84;21034;-61
2022/01/04 07:22:19;;;;;;;3.87;3.57;;;;;;;6.81;81.70;99138.11;1655107;85;21001;-59
2022/01/04 07:24:45;;;;;;;3.98;3.60;;;;;;;6.82;81.52;99130.50;1647151;85;21030;-63
2022/01/04 07:27:11;;;;;;;5.00;4.50;;;;;;;6.85;81.47;99133.77;1656653;85;21524;-64
2022/01/04 07:29:37;;;;;;;4.00;3.67;;;;;;;6.87;81.54;99134.39;1641112;85;21553;-62
2022/01/04 07:32:05;;;;;;;4.53;3.75;;;;;;;6.92;81.54;99133.31;1654967;85;21136;-59
2022/01/04 07:34:32;;;;;;;4.37;3.77;;;;;;;6.97;81.35;99133.55;1649054;85;21022;-59
2022/01/04 07:36:58;;;;;;;6.67;4.27;;;;;;;6.99;81.37;99139.48;1656154;85;21081;-58
2022/01/04 07:39:24;;;;;;;5.33;4.40;;;;;;;7.02;81.30;99131.13;1647387;85;21023;-62
2022/01/04 07:41:50;;;;;;;4.47;3.83;;;;;;;7.09;80.88;99134.63;1650064;85;21104;-63
2022/01/04 07:44:16;;;;;;;5.42;4.03;;;;;;;7.17;79.81;99141.09;1646155;84;21621;-61
2022/01/04 07:46:43;;;;;;;4.60;3.42;;;;;;;7.19;79.34;99137.73;1648146;85;21604;-66
2022/01/04 07:49:09;;;;;;;5.30;3.77;;;;;;;7.22;79.55;99135.22;1640894;85;21494;-63
2022/01/04 07:51:36;;;;;;;6.50;4.13;;;;;;;7.27;79.56;99133.29;1636195;85;21549;-66
2022/01/04 07:54:02;;;;;;;5.00;4.05;;;;;;;7.28;79.13;99142.89;1649305;85;21066;-66
2022/01/04 07:56:28;;;;;;;6.30;4.10;;;;;;;7.27;79.25;99137.27;1654689;85;21046;-63
2022/01/04 07:59:00;;;;;;;7.45;4.97;;;;;;;7.32;78.92;99140.97;1655826;85;21053;-64
2022/01/04 08:01:23;;;;;;;5.33;4.43;;;;;;;7.38;78.21;99142.02;1653253;85;21057;-66
2022/01/04 08:03:49;;;;;;;6.65;3.62;;;;;;;7.42;77.83;99145.90;1653054;85;21044;-64
2022/01/04 08:06:15;;;;;;;8.38;4.47;;;;;;;7.45;78.01;99134.91;1652209;85;21136;-64
2022/01/04 08:08:41;;;;;;;4.97;3.95;;;;;;;7.50;77.62;99132.50;1649282;85;21062;-64
2022/01/04 08:11:08;;;;;;;5.70;4.72;;;;;;;7.50;77.42;99141.77;1648468;84;21120;-63
2022/01/04 08:13:34;;;;;;;;;;;;;;;7.52;77.37;99134.44;1657847;85;21077;-63
2022/01/04 08:16:00;;;;;;;4.87;4.30;;;;;;;7.54;77.10;99144.85;1646571;86;20137;-66
2022/01/04 08:18:27;;;;;;;6.70;4.07;;;;;;;7.52;77.28;99152.19;1688441;83;21042;-67
2022/01/04 08:20:57;;;;;;;4.60;3.77;;;;;;;7.60;76.69;99146.19;1688979;83;21187;-68
2022/01/04 08:23:22;;;;;;;5.20;4.20;;;;;;;7.67;76.12;99153.38;1684246;80;21001;-63
2022/01/04 08:25:49;;;;;;;6.53;4.97;;;;;;;7.66;76.07;99148.55;1687261;83;21124;-65
2022/01/04 08:28:15;;;;;;;8.23;5.10;;;;;;;7.67;76.28;99142.77;1694266;83;21164;-68
2022/01/04 08:30:42;;;;;;;6.95;4.53;;;;;;;7.71;75.88;99143.48;1690899;83;21061;-67
2022/01/04 08:33:13;;;;;;;4.23;3.67;;;;;;;7.32;75.00;99085.30;1693000;83;20934;-67
2022/01/04 08:35:40;;;;;;;4.03;3.40;;;;;;;7.59;75.46;99133.96;1686359;83;21092;-67
2022/01/04 08:38:09;;;;;;;5.90;4.00;;;;;;;7.67;75.52;99138.79;1686882;83;21129;-68
2022/01/04 08:40:35;;;;;;;5.40;3.43;;;;;;;7.74;75.29;99148.89;1687831;83;21076;-67
2022/01/04 08:43:03;;;;;;;6.60;4.00;;;;;;;7.76;75.26;99144.20;1681751;83;21031;-65
2022/01/04 08:45:29;;;;;;;7.93;5.37;;;;;;;7.78;75.24;99144.84;1690945;83;20942;-68
2022/01/04 08:47:56;;;;;;;5.20;4.15;;;;;;;7.78;74.63;99136.37;1690974;83;21485;-69
2022/01/04 08:50:22;;;;;;;6.47;4.53;;;;;;;7.78;74.91;99142.19;1684481;83;21142;-68
2022/01/04 08:52:55;;;;;;;8.53;4.75;;;;;;;7.82;74.63;99142.09;1677146;83;21070;-66
2022/01/04 08:55:21;;;;;;;3.73;3.43;;;;;;;7.85;74.19;99145.66;1677357;82;20993;-72
2022/01/04 08:57:49;;;;;;;20.13;5.50;;;;;;;7.90;74.21;99146.41;1683796;83;22461;-67
2022/01/04 09:00:17;;;;;;;5.65;4.10;;;;;;;8.01;74.13;99147.66;1673366;83;21100;-67
2022/01/04 09:02:43;;;;;;;4.57;4.13;;;;;;;8.08;73.57;99147.14;1699843;82;21106;-68
2022/01/04 09:05:11;;;;;;;7.03;5.30;;;;;;;8.12;73.22;99147.88;1696821;82;21557;-66
2022/01/04 09:07:38;;;;;;;7.20;5.67;;;;;;;8.14;73.32;99145.03;1705374;82;21010;-72
2022/01/04 09:10:07;;;;;;;7.87;5.50;;;;;;;8.22;72.66;99148.00;1696004;82;21068;-67
2022/01/04 09:12:51;;;;;;;4.73;4.10;;;;;;;8.21;72.11;99149.81;1695759;82;20997;-67
2022/01/04 09:20:46;;;;;;;;;;;;;;;8.16;70.98;99157.59;1718741;82;21030;-67
2022/01/04 09:23:18;;;;;;;5.77;3.60;;;;;;;7.99;71.40;99164.59;1689975;82;20179;-64
2022/01/04 09:25:44;;;;;;;6.70;4.43;;;;;;;7.87;72.31;99171.48;1694706;83;21060;-72
2022/01/04 09:28:12;;;;;;;4.80;4.30;;;;;;;7.89;72.35;99163.33;1691714;83;21081;-65
2022/01/04 09:30:42;;;;;;;8.10;5.27;;;;;;;7.89;71.95;99166.82;1695129;83;21670;-66
2022/01/04 09:33:10;;;;;;;9.33;6.60;;;;;;;7.92;71.82;99169.05;1695306;83;21030;-67
2022/01/04 09:35:37;;;;;;;6.00;5.00;;;;;;;8.01;71.86;99173.68;1686080;83;21075;-72
2022/01/04 09:38:05;;;;;;;8.00;5.30;;;;;;;8.09;71.40;99170.02;1685236;83;21668;-69
2022/01/04 09:40:35;;;;;;;9.03;4.80;;;;;;;8.11;71.37;99173.30;1681229;83;21017;-66
2022/01/04 09:43:09;;;;;;;6.63;5.13;;;;;;;8.13;70.77;99172.58;1679228;83;21544;-67
2022/01/04 09:45:37;;;;;;;7.63;5.20;;;;;;;8.11;70.56;99175.42;1662743;83;21085;-67
2022/01/04 09:48:05;;;;;;;7.13;5.27;;;;;;;8.04;70.56;99183.06;1645279;85;21079;-69
2022/01/04 09:50:35;;;;;;;6.63;4.27;;;;;;;7.96;70.88;99164.98;1643865;85;21068;-66
2022/01/04 09:53:06;;;;;;;7.33;4.67;;;;;;;7.95;70.83;99167.34;1644606;85;21067;-67
2022/01/04 09:55:31;;;;;;;8.47;4.63;;;;;;;7.97;70.77;99173.27;1653943;84;21567;-66
2022/01/04 09:57:58;;;;;;;4.93;4.23;;;;;;;8.01;70.86;99179.51;1661470;83;21560;-67
2022/01/04 10:00:24;;;;;;;4.80;4.15;;;;;;;7.95;70.67;99171.32;1670403;83;21172;-66
2022/01/04 10:02:52;;;;;;;4.50;4.07;;;;;;;7.87;70.68;99178.11;1663412;85;21003;-66
2022/01/04 10:05:23;;;;;;;4.12;3.72;;;;;;;7.73;70.87;99179.09;1664628;85;21480;-67
2022/01/04 10:08:00;;;;;;;6.33;3.87;;;;;;;7.57;71.15;99177.10;1660452;85;21607;-75
2022/01/04 10:10:26;;;;;;;4.95;4.55;;;;;;;7.50;71.39;99172.27;1663315;85;21173;-67
2022/01/04 10:13:01;;;;;;;6.80;4.70;;;;;;;7.47;71.44;99175.30;1640321;84;21047;-67
2022/01/04 10:15:44;;;;;;;6.53;4.17;;;;;;;7.45;71.64;99182.64;1629406;86;21030;-67
2022/01/04 10:18:21;;;;;;;7.77;4.33;;;;;;;7.42;72.00;99186.99;1635786;86;21133;-67
2022/01/04 10:20:53;;;;;;;5.95;3.62;;;;;;;7.40;71.58;99171.80;1630004;86;21068;-69
2022/01/04 10:23:25;;;;;;;4.13;3.73;;;;;;;7.35;71.25;99171.07;1646437;84;21042;-67
2022/01/04 10:26:04;;;;;;;7.70;4.23;;;;;;;7.36;71.82;99177.18;1660980;84;21045;-70
2022/01/04 10:28:39;;;;;;;5.17;4.57;;;;;;;7.43;71.86;99178.55;1666119;84;21109;-69
2022/01/04 10:31:10;;;;;;;5.87;4.10;;;;;;;7.49;71.62;99179.09;1664002;84;21644;-70
2022/01/04 10:33:37;;;;;;;7.73;5.27;;;;;;;7.55;71.47;99184.44;1654616;84;21018;-68
2022/01/04 10:36:11;;;;;;;7.43;5.93;;;;;;;7.54;71.23;99182.78;1639923;86;21041;-68
2022/01/04 10:38:38;;;;;;;6.30;4.80;;;;;;;7.58;71.52;99191.98;1622718;87;22222;-68
2022/01/04 10:41:22;;;;;;;5.77;5.13;;;;;;;7.57;70.49;99185.05;1627518;87;21078;-66
2022/01/04 10:43:56;;;;;;;5.73;5.20;;;;;;;7.53;70.90;99189.09;1623528;87;21079;-69
2022/01/04 10:46:41;;;;;;;5.60;4.50;;;;;;;7.48;70.53;99188.88;1610135;87;21044;-67
2022/01/04 10:49:18;;;;;;;8.20;4.97;;;;;;;7.51;70.06;99191.64;1619057;87;21059;-67
2022/01/04 10:52:06;;;;;;;6.93;4.70;;;;;;;7.46;70.21;99188.27;1631819;86;21082;-66
2022/01/04 10:54:33;;;;;;;7.80;5.23;;;;;;;7.38;70.42;99187.92;1625318;86;21058;-70
2022/01/04 10:57:08;;;;;;;9.05;4.80;;;;;;;7.24;70.66;99174.78;1672982;83;21597;-68
2022/01/04 10:59:36;;;;;;;5.97;4.83;;;;;;;7.33;70.69;99185.55;1692583;83;21037;-68
2022/01/04 11:02:04;;;;;;;8.93;5.63;;;;;;;7.38;70.74;99179.97;1671328;84;21668;-67
2022/01/04 11:04:31;;;;;;;6.20;4.67;;;;;;;7.44;69.63;99176.20;1665617;84;21073;-69
2022/01/04 11:07:01;;;;;;;8.60;5.13;;;;;;;7.47;69.67;99173.98;1676163;84;21097;-66
2022/01/04 11:09:29;;;;;;;6.83;5.80;;;;;;;7.54;69.52;99174.83;1669680;84;21037;-67
2022/01/04 11:11:55;;;;;;;10.57;6.53;;;;;;;7.54;68.93;99170.86;1664936;83;20948;-69
2022/01/04 11:14:22;;;;;;;9.35;6.25;;;;;;;7.52;69.12;99177.37;1659708;85;21564;-68
2022/01/04 11:16:49;;;;;;;8.87;6.37;;;;;;;7.48;68.96;99180.09;1659349;85;21032;-66
2022/01/04 11:19:19;;;;;;;11.25;6.03;;;;;;;7.43;69.21;99178.04;1645803;85;21166;-68
2022/01/04 11:21:45;;;;;;;8.43;5.67;;;;;;;7.40;69.39;99188.55;1649870;85;21095;-65
2022/01/04 11:24:16;;;;;;;10.00;5.70;;;;;;;7.35;69.56;99188.81;1640374;85;21059;-66
2022/01/04 11:26:46;;;;;;;8.77;5.50;;;;;;;7.34;69.84;99187.16;1656947;85;21036;-65
2022/01/04 11:29:14;;;;;;;8.23;5.67;;;;;;;7.31;69.95;99186.22;1651347;85;20997;-66
2022/01/04 11:32:02;;;;;;;9.30;5.50;;;;;;;7.31;70.36;99192.84;1640291;85;21045;-68
2022/01/04 11:35:04;;;;;;;11.97;7.93;;;;;;;7.34;70.62;99190.63;1652838;84;21576;-65
2022/01/04 11:37:30;;;;;;;9.43;5.53;;;;;;;7.40;70.59;99189.03;1651453;85;21081;-67
2022/01/04 11:39:57;;;;;;;8.13;4.50;;;;;;;7.44;70.16;99179.69;1657212;85;21040;-66
2022/01/04 11:42:35;;;;;;;9.58;6.00;;;;;;;7.41;70.17;99188.84;1647195;85;21055;-67
2022/01/04 11:45:06;;;;;;;6.47;5.47;;;;;;;7.44;70.11;99190.30;1658448;85;21035;-67
2022/01/04 11:47:34;;;;;;;7.37;4.93;;;;;;;7.48;70.30;99182.73;1642331;85;21084;-71
2022/01/04 11:50:20;;;;;;;11.67;5.17;;;;;;;7.54;69.86;99193.39;1656733;85;21151;-72
2022/01/04 11:52:55;;;;;;;16.30;10.07;;;;;;;7.55;69.65;99191.55;1660845;85;22621;-67
2022/01/04 11:55:33;;;;;;;16.73;10.63;;;;;;;7.53;69.94;99194.39;1658963;84;21528;-68
2022/01/04 11:58:13;;;;;;;13.40;9.03;;;;;;;7.55;69.67;99203.00;1647769;85;21036;-66
2022/01/04 12:00:45;;;;;;;12.67;8.37;;;;;;;7.59;69.62;99204.72;1613703;86;21118;-66
2022/01/04 12:03:15;;;;;;;7.70;6.40;;;;;;;7.63;69.19;99209.13;1650554;85;21109;-66